Time;durP1;ratioP1;P1;durP2;ratioP2;P2;SDS_P1;SDS_P2;PMS_P1;PMS_P2;Temp;Humidity;BMP_temperature;BMP_pressure;BME280_temperature;BME280_humidity;BME280_pressure;Samples;Min_cycle;Max_cycle;Signal;HPM_P1;HPM_P2
2021/08/17 00:00:23;;;;;;;14.70;2.55;;;;;;;14.76;62.83;101890.84;4965567;28;20030;-51
2021/08/17 00:02:48;;;;;;;8.10;2.63;;;;;;;14.68;63.70;101892.50;4964420;28;20026;-48
2021/08/17 00:05:14;;;;;;;8.90;2.45;;;;;;;14.63;63.94;101895.06;4964615;28;20861;-48
2021/08/17 00:07:40;;;;;;;7.63;2.78;;;;;;;14.58;64.46;101894.97;4964587;28;20042;-48
2021/08/17 00:10:07;;;;;;;7.30;2.63;;;;;;;14.58;64.30;101891.47;4962697;28;20410;-49
2021/08/17 00:12:33;;;;;;;9.38;2.63;;;;;;;14.57;63.57;101880.13;4964667;28;20899;-48
2021/08/17 00:14:58;;;;;;;12.45;2.83;;;;;;;14.63;63.48;101881.94;4967022;28;20552;-51
2021/08/17 00:17:23;;;;;;;10.75;2.75;;;;;;;14.67;62.50;101891.59;4967491;28;20073;-47
2021/08/17 00:19:49;;;;;;;8.50;2.30;;;;;;;14.66;62.40;101895.09;4966555;28;20399;-47
2021/08/17 00:22:14;;;;;;;6.70;2.22;;;;;;;14.65;63.12;101892.44;4962190;28;20157;-49
2021/08/17 00:24:40;;;;;;;11.23;2.47;;;;;;;14.63;63.36;101889.81;4966162;28;20026;-48
2021/08/17 00:27:06;;;;;;;14.63;2.50;;;;;;;14.62;63.91;101885.41;4963541;28;20037;-47
2021/08/17 00:29:31;;;;;;;7.28;2.60;;;;;;;14.68;63.63;101887.25;4981161;28;20070;-48
2021/08/17 00:31:57;;;;;;;7.00;2.10;;;;;;;14.68;63.61;101880.25;4964583;28;20478;-48
2021/08/17 00:34:22;;;;;;;10.07;2.67;;;;;;;14.66;64.03;101876.72;4962014;28;20038;-52
2021/08/17 00:36:49;;;;;;;9.60;2.67;;;;;;;14.68;64.33;101877.63;4963878;28;20561;-46
2021/08/17 00:39:16;;;;;;;11.52;2.70;;;;;;;14.65;65.30;101876.69;4966047;28;20597;-47
2021/08/17 00:41:42;;;;;;;7.38;2.20;;;;;;;14.66;64.87;101881.06;4970143;28;20034;-48
2021/08/17 00:44:25;;;;;;;6.97;2.47;;;;;;;14.66;64.59;101871.47;4958094;28;20111;-47
2021/08/17 00:46:51;;;;;;;10.68;2.65;;;;;;;13.90;67.40;101867.75;4964889;28;20030;-50
2021/08/17 00:49:18;;;;;;;9.02;2.85;;;;;;;13.85;68.31;101871.13;4966867;28;20042;-48
2021/08/17 00:51:43;;;;;;;8.77;2.38;;;;;;;13.97;67.91;101863.44;4959626;28;20030;-48
2021/08/17 00:54:09;;;;;;;9.75;2.58;;;;;;;14.00;68.36;101866.13;4966240;28;20027;-51
2021/08/17 00:56:36;;;;;;;11.02;2.83;;;;;;;14.26;66.85;101864.78;4954775;28;20041;-49
2021/08/17 00:59:01;;;;;;;7.97;2.40;;;;;;;14.25;66.99;101860.41;4963901;28;20100;-47
2021/08/17 01:01:26;;;;;;;9.77;2.67;;;;;;;14.22;66.99;101863.84;4963745;28;20047;-47
2021/08/17 01:03:52;;;;;;;11.52;2.50;;;;;;;14.26;67.23;101856.91;4969055;28;20041;-47
2021/08/17 01:06:17;;;;;;;9.20;2.85;;;;;;;14.04;68.33;101860.94;4967687;28;20720;-48
2021/08/17 01:08:43;;;;;;;8.32;2.50;;;;;;;14.32;67.77;101861.38;4961619;28;20473;-51
2021/08/17 01:11:08;;;;;;;10.82;2.55;;;;;;;14.41;68.19;101865.00;4961860;28;20114;-48
2021/08/17 01:13:33;;;;;;;9.43;2.75;;;;;;;14.45;67.67;101863.34;4964444;28;20046;-47
2021/08/17 01:15:59;;;;;;;9.45;2.42;;;;;;;14.72;67.09;101871.53;4965805;28;20649;-49
2021/08/17 01:18:25;;;;;;;10.20;2.80;;;;;;;15.00;65.80;101864.88;4962348;28;20022;-47
2021/08/17 01:20:54;;;;;;;7.78;2.50;;;;;;;14.75;66.86;101871.59;4964377;28;20482;-50
2021/08/17 01:23:20;;;;;;;8.70;2.55;;;;;;;15.13;66.36;101871.13;4963108;28;20054;-48
2021/08/17 01:25:46;;;;;;;8.93;2.25;;;;;;;15.23;65.63;101871.25;4961225;28;20612;-48
2021/08/17 01:28:11;;;;;;;5.72;2.20;;;;;;;15.24;65.42;101873.03;4966542;28;20313;-49
2021/08/17 01:30:37;;;;;;;13.80;2.72;;;;;;;15.22;65.37;101871.22;4964872;28;20550;-48
2021/08/17 01:33:02;;;;;;;9.93;2.85;;;;;;;15.18;65.85;101870.34;4966310;28;20073;-48
2021/08/17 01:35:28;;;;;;;10.23;2.47;;;;;;;15.46;64.96;101874.09;4966642;28;20038;-49
2021/08/17 01:37:54;;;;;;;8.60;2.63;;;;;;;15.54;64.51;101879.47;4957068;28;20080;-46
2021/08/17 01:40:19;;;;;;;7.47;2.53;;;;;;;15.51;64.55;101885.53;4970101;28;20026;-46
2021/08/17 01:42:46;;;;;;;11.57;3.10;;;;;;;15.22;66.58;101890.50;4964770;28;20047;-47
2021/08/17 01:45:15;;;;;;;8.63;2.85;;;;;;;15.24;66.42;101882.66;4963963;28;20030;-46
2021/08/17 01:47:41;;;;;;;8.43;2.25;;;;;;;15.53;65.60;101889.09;4965574;28;20211;-47
2021/08/17 01:50:09;;;;;;;8.23;2.63;;;;;;;15.62;65.38;101883.03;4963244;28;20030;-47
2021/08/17 01:52:35;;;;;;;6.70;2.80;;;;;;;15.33;66.68;101888.84;4977753;28;20543;-49
2021/08/17 01:55:00;;;;;;;8.57;2.60;;;;;;;15.25;67.30;101890.53;4962670;28;20030;-47
2021/08/17 01:57:25;;;;;;;4.80;2.40;;;;;;;15.25;67.96;101881.75;4962095;28;20818;-47
2021/08/17 01:59:51;;;;;;;10.32;3.00;;;;;;;15.46;67.35;101881.97;4963537;28;20035;-47
2021/08/17 02:02:16;;;;;;;8.18;3.20;;;;;;;15.49;67.39;101876.72;4971024;28;20490;-48
2021/08/17 02:04:42;;;;;;;8.80;3.05;;;;;;;15.64;66.63;101876.91;4963276;28;20097;-46
2021/08/17 02:07:07;;;;;;;6.82;2.80;;;;;;;15.67;66.36;101868.19;4966198;28;20061;-46
2021/08/17 02:09:32;;;;;;;9.20;3.00;;;;;;;15.73;65.90;101870.88;4963467;28;20030;-48
2021/08/17 02:11:58;;;;;;;11.35;3.10;;;;;;;15.75;65.51;101874.38;4966197;28;20026;-48
2021/08/17 02:14:23;;;;;;;7.72;2.75;;;;;;;15.77;65.54;101880.53;4965112;28;20072;-49
2021/08/17 02:16:48;;;;;;;9.95;2.97;;;;;;;15.76;65.65;101877.03;4962701;28;20141;-47
2021/08/17 02:19:16;;;;;;;8.00;3.22;;;;;;;15.68;66.16;101883.06;4967907;28;20019;-47
2021/08/17 02:21:41;;;;;;;8.13;3.00;;;;;;;15.34;67.62;101877.50;4965927;28;20030;-47
2021/08/17 02:24:07;;;;;;;9.80;2.97;;;;;;;15.27;67.49;101873.03;4968507;28;20359;-50
2021/08/17 02:26:32;;;;;;;8.18;3.28;;;;;;;15.24;68.28;101878.28;4962501;28;20042;-48
2021/08/17 02:28:57;;;;;;;7.63;2.80;;;;;;;15.39;67.22;101881.03;4969265;28;20552;-49
2021/08/17 02:31:23;;;;;;;8.25;3.30;;;;;;;15.29;68.19;101878.31;4964018;28;20048;-48
2021/08/17 02:33:48;;;;;;;7.32;3.08;;;;;;;15.17;68.65;101875.56;4965454;28;20049;-47
2021/08/17 02:36:13;;;;;;;8.02;3.22;;;;;;;15.15;68.99;101870.28;4973889;28;20601;-48
2021/08/17 02:38:39;;;;;;;7.78;3.13;;;;;;;15.23;68.24;101876.50;4963436;28;20648;-51
2021/08/17 02:41:04;;;;;;;9.98;3.55;;;;;;;15.50;67.52;101875.00;4969507;28;20026;-47
2021/08/17 02:43:29;;;;;;;8.63;3.60;;;;;;;15.42;68.02;101861.81;4967641;28;20038;-47
2021/08/17 02:45:58;;;;;;;9.23;3.80;;;;;;;15.40;68.93;101860.91;4967648;28;20732;-50
2021/08/17 02:48:24;;;;;;;10.98;4.43;;;;;;;15.32;68.99;101871.31;4966204;28;20041;-51
2021/08/17 02:50:49;;;;;;;14.13;4.32;;;;;;;15.25;70.14;101872.13;4963304;28;20345;-51
2021/08/17 02:53:15;;;;;;;11.40;4.05;;;;;;;15.20;69.72;101870.31;4970972;28;20486;-51
2021/08/17 02:55:40;;;;;;;11.85;4.32;;;;;;;14.79;71.05;101867.25;4965226;28;20170;-49
2021/08/17 02:58:07;;;;;;;11.85;4.13;;;;;;;14.67;72.24;101869.72;4967858;28;20026;-51
2021/08/17 03:00:33;;;;;;;9.35;4.00;;;;;;;14.60;72.82;101868.75;4964918;28;20030;-47
2021/08/17 03:02:59;;;;;;;7.15;3.75;;;;;;;14.59;72.93;101875.75;4970305;28;20410;-46
2021/08/17 03:05:24;;;;;;;12.02;4.60;;;;;;;14.57;72.99;101874.88;4966022;28;20034;-49
2021/08/17 03:07:52;;;;;;;10.70;4.10;;;;;;;14.54;73.54;101864.31;4969211;28;20068;-47
2021/08/17 03:10:17;;;;;;;9.68;4.47;;;;;;;14.49;73.90;101870.38;4968958;28;20137;-47
2021/08/17 03:12:43;;;;;;;10.82;3.92;;;;;;;14.44;73.87;101869.44;4959779;28;20037;-49
2021/08/17 03:15:09;;;;;;;11.80;4.32;;;;;;;14.37;73.91;101863.22;4966902;28;20573;-47
2021/08/17 03:17:37;;;;;;;10.85;4.45;;;;;;;14.69;73.07;101858.41;4961988;28;20498;-50
2021/08/17 03:20:04;;;;;;;11.05;4.43;;;;;;;14.67;73.21;101861.84;4966198;28;20397;-50
2021/08/17 03:22:30;;;;;;;8.63;4.03;;;;;;;14.55;73.42;101859.94;4961226;28;20038;-50
2021/08/17 03:24:55;;;;;;;10.93;4.65;;;;;;;14.41;74.39;101865.00;4970069;28;20251;-49
2021/08/17 03:27:21;;;;;;;11.90;4.75;;;;;;;14.35;74.88;101857.03;4958682;28;20088;-48
2021/08/17 03:29:46;;;;;;;12.07;5.03;;;;;;;14.29;75.44;101851.69;4965284;28;20038;-48
2021/08/17 03:32:11;;;;;;;11.00;4.43;;;;;;;14.26;75.19;101854.28;4965470;28;20081;-51
2021/08/17 03:34:37;;;;;;;9.77;4.55;;;;;;;14.20;75.99;101841.09;4962453;28;20484;-48
2021/08/17 03:37:02;;;;;;;12.90;6.00;;;;;;;14.01;77.81;101839.94;4966928;28;20018;-47
2021/08/17 03:39:28;;;;;;;10.10;4.88;;;;;;;13.95;77.40;101844.22;4957297;28;20110;-49
2021/08/17 03:41:54;;;;;;;10.60;5.10;;;;;;;13.85;77.96;101844.91;4967082;28;20172;-48
2021/08/17 03:44:19;;;;;;;11.98;4.93;;;;;;;13.75;78.52;101830.81;4964562;28;20043;-48
2021/08/17 03:46:44;;;;;;;14.65;6.00;;;;;;;13.73;78.95;101833.38;4969224;28;20030;-47
2021/08/17 03:49:10;;;;;;;12.35;5.25;;;;;;;13.87;78.77;101833.59;4962908;28;20054;-49
2021/08/17 03:51:35;;;;;;;10.30;5.00;;;;;;;13.91;78.38;101843.28;4964112;28;20121;-47
2021/08/17 03:54:00;;;;;;;20.50;7.22;;;;;;;13.92;79.22;101838.91;4970534;28;20175;-49
2021/08/17 03:56:26;;;;;;;12.38;5.90;;;;;;;13.93;79.07;101838.94;4959690;28;20520;-47
2021/08/17 03:58:51;;;;;;;13.65;5.90;;;;;;;13.93;79.18;101841.56;4973942;28;20134;-55
2021/08/17 04:01:17;;;;;;;12.43;5.70;;;;;;;13.94;79.22;101847.69;4961341;28;20092;-49
2021/08/17 04:03:43;;;;;;;14.90;5.78;;;;;;;13.88;79.68;101843.25;4965673;28;20782;-47
2021/08/17 04:06:08;;;;;;;15.80;6.15;;;;;;;14.05;78.55;101841.75;4967097;28;20384;-47
2021/08/17 04:08:35;;;;;;;12.88;5.03;;;;;;;14.09;78.38;101854.03;4963605;28;20057;-48
2021/08/17 04:11:01;;;;;;;14.07;5.63;;;;;;;14.14;78.34;101859.38;4967769;28;20061;-47
2021/08/17 04:13:26;;;;;;;13.68;6.07;;;;;;;14.19;78.42;101858.56;4958468;28;20510;-47
2021/08/17 04:15:51;;;;;;;13.35;5.72;;;;;;;14.23;78.31;101851.63;4967601;28;20037;-48
2021/08/17 04:18:17;;;;;;;13.48;5.55;;;;;;;14.25;78.21;101854.25;4971944;28;20708;-46
2021/08/17 04:20:42;;;;;;;14.25;6.00;;;;;;;14.24;78.40;101856.00;4965511;28;20023;-50
2021/08/17 04:23:07;;;;;;;13.70;5.85;;;;;;;14.27;78.24;101860.44;4967297;28;20030;-48
2021/08/17 04:25:33;;;;;;;16.48;6.47;;;;;;;14.28;78.23;101849.94;4963414;28;20022;-50
2021/08/17 04:27:58;;;;;;;17.27;6.40;;;;;;;14.31;78.41;101846.47;4962430;28;20042;-47
2021/08/17 04:30:24;;;;;;;18.17;6.22;;;;;;;14.33;78.60;101850.00;4961655;28;20089;-46
2021/08/17 04:32:49;;;;;;;17.85;6.32;;;;;;;14.33;78.46;101856.16;4967113;28;20033;-49
2021/08/17 04:35:19;;;;;;;15.43;6.65;;;;;;;14.34;78.43;101849.13;4966182;28;20081;-49
2021/08/17 04:37:44;;;;;;;16.85;6.25;;;;;;;14.41;78.33;101853.63;4963285;28;20509;-50
2021/08/17 04:40:10;;;;;;;14.73;6.28;;;;;;;14.30;78.79;101852.59;4968425;28;20034;-48
2021/08/17 04:42:35;;;;;;;16.52;6.38;;;;;;;14.41;78.94;101848.38;4965948;28;20100;-48
2021/08/17 04:45:00;;;;;;;15.55;6.32;;;;;;;14.42;78.73;101851.03;4966965;28;20580;-47
2021/08/17 04:47:26;;;;;;;16.42;6.65;;;;;;;14.49;78.54;101852.00;4963584;28;20097;-50
2021/08/17 04:49:51;;;;;;;17.85;7.13;;;;;;;14.58;78.73;101846.84;4965109;28;20031;-49
2021/08/17 04:52:17;;;;;;;17.58;7.38;;;;;;;14.71;78.70;101840.91;4970828;28;20088;-51
2021/08/17 04:54:43;;;;;;;18.95;7.50;;;;;;;14.67;78.73;101844.34;4963519;28;20046;-48
2021/08/17 04:57:08;;;;;;;15.57;6.78;;;;;;;14.56;79.07;101849.47;4962510;28;20129;-48
2021/08/17 04:59:33;;;;;;;24.65;8.18;;;;;;;14.86;78.25;101837.59;4964983;28;20109;-47
2021/08/17 05:01:59;;;;;;;24.23;8.18;;;;;;;14.92;77.89;101841.16;4965506;28;20392;-51
2021/08/17 05:04:24;;;;;;;17.85;7.35;;;;;;;14.98;77.53;101842.97;4962994;28;20038;-48
2021/08/17 05:06:51;;;;;;;20.00;7.57;;;;;;;15.02;77.09;101836.88;4965736;28;20202;-48
2021/08/17 05:09:16;;;;;;;21.25;8.88;;;;;;;15.02;77.48;101848.25;4956749;28;20395;-52
2021/08/17 05:11:42;;;;;;;21.27;8.02;;;;;;;15.06;77.46;101849.19;4967923;28;20022;-51
2021/08/17 05:14:07;;;;;;;21.50;8.52;;;;;;;15.16;77.32;101852.78;4963924;28;20042;-47
2021/08/17 05:16:33;;;;;;;19.08;8.23;;;;;;;15.27;76.80;101848.50;4964466;28;20034;-46
2021/08/17 05:18:59;;;;;;;23.58;9.38;;;;;;;15.33;76.81;101840.69;4963948;28;20050;-46
2021/08/17 05:21:24;;;;;;;21.60;9.23;;;;;;;15.47;76.86;101833.81;4968134;28;20795;-46
2021/08/17 05:23:51;;;;;;;23.25;9.35;;;;;;;15.71;75.52;101838.41;4970545;28;20045;-48
2021/08/17 05:26:17;;;;;;;21.30;8.43;;;;;;;15.89;75.42;101840.31;4959532;28;20023;-50
2021/08/17 05:28:42;;;;;;;18.90;8.73;;;;;;;16.02;75.13;101835.13;4963634;28;20092;-49
2021/08/17 05:31:08;;;;;;;21.60;8.75;;;;;;;16.13;74.73;101836.09;4964147;28;20470;-51
2021/08/17 05:33:33;;;;;;;26.10;8.65;;;;;;;16.22;74.45;101828.22;4966698;28;20040;-51
2021/08/17 05:35:58;;;;;;;24.08;9.40;;;;;;;16.27;74.10;101828.28;4969562;28;20031;-47
2021/08/17 05:38:24;;;;;;;23.20;8.93;;;;;;;16.31;74.28;101830.03;4964362;28;20026;-49
2021/08/17 05:40:50;;;;;;;20.25;9.32;;;;;;;16.33;73.89;101823.03;4963849;28;20072;-48
2021/08/17 05:43:16;;;;;;;22.10;9.27;;;;;;;16.36;74.13;101824.78;4961423;28;20045;-48
2021/08/17 05:45:41;;;;;;;18.58;8.18;;;;;;;16.42;74.00;101830.97;4968779;28;20428;-48
2021/08/17 05:48:07;;;;;;;23.20;9.10;;;;;;;16.47;73.74;101823.06;4959614;28;20088;-52
2021/08/17 05:50:32;;;;;;;21.88;8.20;;;;;;;16.56;73.91;101821.38;4963075;28;20557;-50
2021/08/17 05:52:58;;;;;;;25.05;8.25;;;;;;;16.63;73.78;101814.41;4965436;28;20466;-49
2021/08/17 05:55:23;;;;;;;21.85;8.07;;;;;;;16.70;73.41;101821.47;4966381;28;20620;-48
2021/08/17 05:57:56;;;;;;;21.52;8.07;;;;;;;16.74;73.68;101815.34;4979160;28;20569;-48
2021/08/17 06:00:21;;;;;;;25.73;8.00;;;;;;;16.78;73.58;101822.34;4969087;28;20038;-47
2021/08/17 06:02:47;;;;;;;18.40;7.60;;;;;;;16.90;72.98;101829.41;4971777;28;20026;-49
2021/08/17 06:05:12;;;;;;;20.85;8.35;;;;;;;17.00;71.90;101832.09;4963008;28;20467;-49
2021/08/17 06:07:37;;;;;;;21.48;7.82;;;;;;;17.06;72.06;101836.50;4973039;28;20019;-47
2021/08/17 06:10:04;;;;;;;18.95;7.40;;;;;;;17.11;72.43;101828.59;4968594;28;20027;-48
2021/08/17 06:12:30;;;;;;;20.17;7.10;;;;;;;17.15;71.87;101825.94;4966633;28;20026;-49
2021/08/17 06:14:55;;;;;;;18.80;7.32;;;;;;;17.20;71.91;101826.84;4962561;28;20064;-48
2021/08/17 06:17:20;;;;;;;21.38;6.97;;;;;;;17.28;71.75;101819.81;4969454;28;20342;-50
2021/08/17 06:19:46;;;;;;;20.80;6.90;;;;;;;17.36;71.23;101825.09;4971493;28;20632;-52
2021/08/17 06:22:11;;;;;;;18.08;6.50;;;;;;;17.38;71.05;101824.22;4960605;28;20038;-48
2021/08/17 06:24:37;;;;;;;16.70;6.35;;;;;;;17.32;70.26;101824.22;4967614;28;20542;-50
2021/08/17 06:27:03;;;;;;;17.73;6.55;;;;;;;17.44;70.30;101840.03;4964100;28;20238;-49
2021/08/17 06:29:28;;;;;;;15.65;6.35;;;;;;;17.59;70.13;101851.47;4962667;28;20117;-46
2021/08/17 06:31:53;;;;;;;15.98;6.10;;;;;;;18.03;68.51;101847.09;4963329;28;20484;-51
2021/08/17 06:34:19;;;;;;;15.88;6.15;;;;;;;18.72;67.41;101854.81;4963855;28;20124;-48
2021/08/17 06:36:44;;;;;;;17.63;6.10;;;;;;;19.68;64.05;101858.63;4955037;28;20034;-48
2021/08/17 06:39:09;;;;;;;17.85;5.82;;;;;;;20.22;61.73;101853.69;4966726;28;20061;-49
2021/08/17 06:41:35;;;;;;;17.02;5.50;;;;;;;20.30;61.96;101850.97;4966575;28;20382;-50
2021/08/17 06:44:01;;;;;;;15.45;5.75;;;;;;;20.21;60.55;101847.50;4965332;28;20027;-52
2021/08/17 06:46:27;;;;;;;17.20;5.78;;;;;;;19.89;61.48;101832.84;4963529;28;20042;-50
2021/08/17 06:48:53;;;;;;;17.75;6.20;;;;;;;19.42;63.70;101842.03;4964932;28;20122;-49
2021/08/17 06:51:19;;;;;;;14.23;6.30;;;;;;;19.05;64.22;101841.41;4959385;28;20306;-51
2021/08/17 06:53:44;;;;;;;16.48;6.25;;;;;;;18.75;64.08;101846.88;4967964;28;20045;-48
2021/08/17 06:56:10;;;;;;;15.55;5.70;;;;;;;18.29;66.38;101860.22;4966287;28;20855;-49
2021/08/17 06:58:35;;;;;;;15.05;6.40;;;;;;;18.01;67.16;101843.56;4949988;28;20251;-46
2021/08/17 07:01:02;;;;;;;15.57;6.00;;;;;;;17.79;67.56;101821.63;4970493;28;20172;-47
2021/08/17 07:03:27;;;;;;;17.10;6.20;;;;;;;17.68;67.61;101828.66;4967484;28;20136;-50
2021/08/17 07:05:53;;;;;;;13.75;5.85;;;;;;;17.70;68.27;101821.63;4961396;28;20498;-47
2021/08/17 07:08:19;;;;;;;15.18;6.43;;;;;;;17.68;68.03;101809.31;4966995;28;20604;-48
2021/08/17 07:10:45;;;;;;;13.45;5.93;;;;;;;17.62;68.16;101810.22;4966692;28;20034;-48
2021/08/17 07:13:11;;;;;;;14.13;5.45;;;;;;;17.69;67.71;101814.56;4961439;28;20994;-47
2021/08/17 07:15:37;;;;;;;13.90;6.22;;;;;;;17.79;67.78;101808.44;4961888;28;20026;-48
2021/08/17 07:18:02;;;;;;;13.07;5.90;;;;;;;17.81;67.01;101811.91;4969585;28;20031;-49
2021/08/17 07:20:29;;;;;;;19.50;5.95;;;;;;;17.95;66.76;101813.66;4965694;28;20030;-49
2021/08/17 07:22:54;;;;;;;15.02;5.82;;;;;;;18.06;67.95;101820.66;4967877;28;20084;-47
2021/08/17 07:25:21;;;;;;;13.77;5.47;;;;;;;18.02;66.66;101807.50;4957914;28;20038;-48
2021/08/17 07:27:47;;;;;;;14.50;5.47;;;;;;;18.16;65.26;101816.25;4972154;28;20037;-50
2021/08/17 07:30:13;;;;;;;15.27;5.30;;;;;;;18.22;65.17;101813.59;4962766;28;20034;-47
2021/08/17 07:32:43;;;;;;;12.27;4.80;;;;;;;18.29;65.32;101815.34;4967247;28;20057;-48
2021/08/17 07:35:10;;;;;;;11.25;5.03;;;;;;;18.40;64.38;101825.88;4956205;28;20801;-47
2021/08/17 07:37:36;;;;;;;12.50;5.35;;;;;;;18.47;63.98;101832.88;4967479;28;20058;-47
2021/08/17 07:40:03;;;;;;;12.73;5.13;;;;;;;18.60;63.09;101824.91;4965370;28;20022;-49
2021/08/17 07:42:28;;;;;;;12.13;5.28;;;;;;;18.82;63.03;101827.47;4961190;28;20065;-47
2021/08/17 07:44:54;;;;;;;14.13;5.10;;;;;;;19.03;61.78;101832.59;4965586;28;20534;-49
2021/08/17 07:47:19;;;;;;;12.48;5.03;;;;;;;19.29;61.75;101825.38;4956591;28;20645;-48
2021/08/17 07:49:47;;;;;;;10.07;4.70;;;;;;;19.58;60.87;101822.53;4966383;28;20078;-50
2021/08/17 07:52:13;;;;;;;9.02;4.72;;;;;;;19.74;60.44;101826.81;4962130;28;20035;-48
2021/08/17 07:54:38;;;;;;;13.82;4.70;;;;;;;19.71;59.97;101826.84;4964887;28;20033;-47
2021/08/17 07:57:04;;;;;;;13.30;4.90;;;;;;;19.66;59.19;101827.75;4966123;28;20491;-48
2021/08/17 07:59:30;;;;;;;9.93;4.40;;;;;;;19.62;59.60;101834.88;4964287;28;20145;-47
2021/08/17 08:01:55;;;;;;;11.40;4.80;;;;;;;19.40;59.97;101834.13;4966497;28;20033;-49
2021/08/17 08:04:21;;;;;;;10.88;4.68;;;;;;;18.94;61.69;101835.31;4962290;28;20077;-47
2021/08/17 08:06:46;;;;;;;12.65;5.20;;;;;;;18.68;61.70;101842.50;4965917;28;20521;-47
2021/08/17 08:09:11;;;;;;;10.40;4.60;;;;;;;18.68;61.93;101834.56;4963689;28;20409;-47
2021/08/17 08:11:37;;;;;;;11.48;4.60;;;;;;;18.54;62.19;101827.53;4969586;28;20507;-49
2021/08/17 08:14:02;;;;;;;13.55;4.63;;;;;;;18.50;62.06;101823.16;4962881;28;20496;-50
2021/08/17 08:16:28;;;;;;;12.05;4.90;;;;;;;18.36;62.64;101821.50;4958140;28;20034;-47
2021/08/17 08:18:53;;;;;;;11.57;5.00;;;;;;;18.21;63.00;101815.38;4962851;28;20034;-47
2021/08/17 08:21:18;;;;;;;13.50;5.13;;;;;;;18.18;63.76;101811.84;4965649;28;20149;-49
2021/08/17 08:23:44;;;;;;;9.25;4.57;;;;;;;18.14;61.97;101815.38;4969114;28;20069;-46
2021/08/17 08:26:10;;;;;;;10.65;4.38;;;;;;;18.10;62.82;101822.44;4943976;28;20398;-49
2021/08/17 08:28:35;;;;;;;12.38;4.55;;;;;;;17.96;63.06;101840.06;4962331;28;20452;-47
2021/08/17 08:31:01;;;;;;;11.48;4.22;;;;;;;17.97;63.14;101855.00;4964778;28;20392;-47
2021/08/17 08:33:26;;;;;;;11.38;4.57;;;;;;;17.99;62.72;101850.59;4963377;28;20054;-49
2021/08/17 08:35:52;;;;;;;12.70;3.90;;;;;;;18.08;62.13;101849.69;4957929;28;20038;-46
2021/08/17 08:38:17;;;;;;;10.20;4.07;;;;;;;18.12;62.34;101862.88;4960403;28;20478;-47
2021/08/17 08:40:45;;;;;;;12.85;4.30;;;;;;;18.09;63.03;101862.03;4956038;28;20030;-48
2021/08/17 08:43:11;;;;;;;10.13;4.30;;;;;;;18.06;62.77;101865.53;4967000;28;20034;-47
2021/08/17 08:45:38;;;;;;;12.32;4.05;;;;;;;17.91;62.95;101851.50;4960664;28;20036;-49
2021/08/17 08:48:04;;;;;;;8.75;4.10;;;;;;;17.98;62.75;101862.03;4970120;28;20401;-49
2021/08/17 08:50:29;;;;;;;9.93;4.30;;;;;;;17.83;62.59;101859.41;4960382;28;20995;-50
2021/08/17 08:52:58;;;;;;;10.98;3.88;;;;;;;17.87;63.84;101849.75;4978964;28;20389;-47
2021/08/17 08:55:23;;;;;;;12.93;4.00;;;;;;;17.89;63.13;101866.44;4964788;28;20160;-47
2021/08/17 08:57:50;;;;;;;10.82;4.20;;;;;;;17.56;63.63;101856.75;4963128;28;20039;-47
2021/08/17 09:00:16;;;;;;;11.32;4.30;;;;;;;17.57;64.43;101855.84;4957059;28;20037;-49
2021/08/17 09:02:42;;;;;;;10.80;3.97;;;;;;;17.36;64.20;101849.72;4961979;28;20046;-49
2021/08/17 09:05:08;;;;;;;10.07;3.78;;;;;;;17.34;64.87;101850.56;4957380;28;20027;-47
2021/08/17 09:07:42;;;;;;;9.10;3.80;;;;;;;17.21;65.13;101846.16;4976911;28;20642;-47
2021/08/17 09:10:25;;;;;;;9.88;4.00;;;;;;;17.13;66.36;101838.25;4961790;28;20025;-48
2021/08/17 09:12:56;;;;;;;8.75;3.95;;;;;;;17.28;65.20;101830.38;4961502;28;20094;-48
2021/08/17 09:15:35;;;;;;;9.85;4.03;;;;;;;17.41;65.27;101832.13;4957285;28;20034;-48
2021/08/17 09:18:00;;;;;;;9.63;4.05;;;;;;;17.52;64.17;101834.78;4960150;28;20070;-52
2021/08/17 09:20:43;;;;;;;9.13;3.97;;;;;;;17.63;65.40;101837.44;4964102;28;20113;-50
2021/08/17 09:23:20;;;;;;;13.50;3.90;;;;;;;17.65;64.33;101826.00;4958887;28;20577;-51
2021/08/17 09:25:45;;;;;;;8.43;3.65;;;;;;;17.70;63.75;101829.53;4960834;28;20056;-50
2021/08/17 09:28:35;;;;;;;8.13;3.90;;;;;;;17.64;64.26;101833.91;4961751;28;20038;-49
2021/08/17 09:31:03;;;;;;;8.93;3.60;;;;;;;17.83;63.63;101831.28;4953694;28;20165;-47
2021/08/17 09:33:39;;;;;;;11.73;3.60;;;;;;;17.57;63.42;101840.03;4966986;28;20278;-49
2021/08/17 09:36:05;;;;;;;8.32;3.50;;;;;;;17.54;64.37;101830.38;4964208;28;20034;-50
2021/08/17 09:38:32;;;;;;;7.03;3.38;;;;;;;17.47;64.28;101830.38;4970390;28;20484;-47
2021/08/17 09:40:58;;;;;;;7.50;3.20;;;;;;;17.47;63.84;101835.66;4965293;28;20026;-50
2021/08/17 09:43:24;;;;;;;8.00;3.60;;;;;;;17.47;65.23;101840.91;4967888;28;20746;-49
2021/08/17 09:45:50;;;;;;;6.72;3.25;;;;;;;17.39;64.77;101833.00;4962843;28;20374;-47
2021/08/17 09:48:26;;;;;;;5.70;3.00;;;;;;;17.32;65.07;101837.38;4966932;28;20081;-48
2021/08/17 09:50:51;;;;;;;10.07;3.47;;;;;;;17.18;66.25;101839.16;4965323;28;20764;-48
2021/08/17 09:53:19;;;;;;;5.35;3.00;;;;;;;17.08;68.06;101850.53;4967856;28;20358;-49
2021/08/17 09:55:56;;;;;;;7.28;3.42;;;;;;;17.11;68.81;101845.28;4965764;28;20714;-49
2021/08/17 09:58:34;;;;;;;7.63;3.40;;;;;;;17.06;70.97;101833.84;4964917;28;20045;-51
2021/08/17 10:01:01;;;;;;;6.75;3.47;;;;;;;16.82;72.89;101820.63;4968061;28;20051;-47
2021/08/17 10:03:28;;;;;;;7.43;3.80;;;;;;;16.76;74.12;101825.88;4966410;28;20573;-49
2021/08/17 10:05:53;;;;;;;10.32;4.13;;;;;;;16.78;74.55;101817.09;4983324;28;20053;-50
2021/08/17 10:08:20;;;;;;;7.07;3.80;;;;;;;16.78;74.11;101809.19;4963811;28;20030;-49
2021/08/17 10:10:47;;;;;;;7.00;4.00;;;;;;;16.82;75.05;101805.72;4969597;28;20565;-52
2021/08/17 10:13:15;;;;;;;10.95;4.00;;;;;;;17.04;74.32;101809.25;4972080;28;20313;-49
2021/08/17 10:15:42;;;;;;;8.00;4.07;;;;;;;16.96;74.74;101818.88;4965672;28;20651;-47
2021/08/17 10:18:07;;;;;;;8.43;4.30;;;;;;;16.78;76.16;101816.19;4954774;28;20304;-51
2021/08/17 10:20:34;;;;;;;7.88;4.00;;;;;;;16.73;76.35;101816.19;4964673;28;20041;-49
2021/08/17 10:22:59;;;;;;;9.05;4.13;;;;;;;16.88;76.03;101811.00;4967293;28;20034;-48
2021/08/17 10:25:24;;;;;;;8.55;4.18;;;;;;;17.00;76.07;101815.41;4972755;28;20038;-48
2021/08/17 10:27:50;;;;;;;8.27;4.40;;;;;;;17.17;75.38;101813.66;4963854;28;20102;-50
2021/08/17 10:30:21;;;;;;;7.80;4.38;;;;;;;17.23;76.22;101816.31;4967506;28;20027;-48
2021/08/17 10:32:59;;;;;;;10.20;4.47;;;;;;;17.26;75.95;101813.66;4958544;28;20425;-51
2021/08/17 10:35:34;;;;;;;9.30;4.70;;;;;;;17.34;75.18;101818.94;4961154;28;20033;-49
2021/08/17 10:38:09;;;;;;;8.18;4.72;;;;;;;17.36;75.52;101817.19;4964455;28;20496;-51
2021/08/17 10:40:52;;;;;;;11.20;4.82;;;;;;;17.25;75.91;101816.31;4967355;28;20026;-46
2021/08/17 10:43:26;;;;;;;9.98;4.32;;;;;;;17.17;75.02;101816.31;4961785;28;20035;-46
2021/08/17 10:45:55;;;;;;;13.20;4.60;;;;;;;17.20;75.84;101816.28;4965878;28;20033;-46
2021/08/17 10:48:45;;;;;;;9.15;4.60;;;;;;;17.09;76.09;101820.66;4966284;28;20105;-49
2021/08/17 10:51:22;;;;;;;9.75;4.38;;;;;;;17.15;75.06;101809.25;4969318;28;20042;-49
2021/08/17 10:54:03;;;;;;;8.30;4.13;;;;;;;17.21;74.71;101812.78;4961650;28;20049;-48
2021/08/17 10:56:32;;;;;;;7.78;4.38;;;;;;;17.22;76.66;101808.38;4962141;28;20092;-47
2021/08/17 10:58:58;;;;;;;8.25;4.43;;;;;;;17.25;75.93;101811.94;4977924;28;20053;-52
2021/08/17 11:01:30;;;;;;;7.10;4.07;;;;;;;17.39;75.90;101817.19;4957763;28;20033;-48
2021/08/17 11:03:56;;;;;;;7.20;4.28;;;;;;;17.45;74.98;101812.78;4964625;28;20664;-46
2021/08/17 11:06:48;;;;;;;6.90;4.07;;;;;;;17.44;75.30;101811.03;4966637;28;20053;-51
2021/08/17 11:09:33;;;;;;;8.52;3.83;;;;;;;17.51;74.90;101806.63;4959244;28;20061;-46
2021/08/17 11:12:04;;;;;;;10.18;4.47;;;;;;;17.33;76.16;101807.53;4968466;28;20092;-45
2021/08/17 11:14:32;;;;;;;7.47;4.30;;;;;;;17.04;77.47;101806.63;4961249;28;20042;-47
2021/08/17 11:17:00;;;;;;;8.15;4.35;;;;;;;17.16;76.71;101800.47;4961587;28;20018;-45